Time;durP1;ratioP1;P1;durP2;ratioP2;P2;SDS_P1;SDS_P2;PMS_P1;PMS_P2;Temp;Humidity;BMP_temperature;BMP_pressure;BME280_temperature;BME280_humidity;BME280_pressure;Samples;Min_cycle;Max_cycle;Signal;HPM_P1;HPM_P2
2022/08/12 00:46:29;;;;;;;13.60;8.80;;;;;;;12.98;100.00;99182.69;219994;1276;24144;-75
2022/08/12 00:58:52;;;;;;;;;;;;;;;;;;;;;
2022/08/12 01:12:09;;;;;;;12.30;7.90;;;;;;;12.84;100.00;99179.52;219959;1276;22639;-76
2022/08/12 01:32:11;;;;;;;8.90;6.90;;;;;;;12.70;100.00;99183.13;219752;1276;24223;-75
2022/08/12 01:46:04;;;;;;;10.80;8.60;;;;;;;12.53;100.00;99185.05;211908;1277;23980;-75
2022/08/12 02:13:37;;;;;;;11.20;8.60;;;;;;;12.57;100.00;99171.13;219054;1280;24271;-76
2022/08/12 02:27:32;;;;;;;13.90;9.30;;;;;;;12.62;100.00;99171.00;219944;1276;22575;-76
2022/08/12 02:34:42;;;;;;;12.20;8.50;;;;;;;12.62;100.00;99164.11;219908;1276;25319;-75
2022/08/12 02:41:05;;;;;;;10.10;7.70;;;;;;;12.56;100.00;99169.41;219724;1279;24232;-75
2022/08/12 02:48:07;;;;;;;;;;;;;;;;;;;;;
2022/08/12 02:54:28;;;;;;;11.50;7.80;;;;;;;12.44;100.00;99163.09;220234;1276;22577;-75
2022/08/12 03:22:19;;;;;;;8.40;6.90;;;;;;;12.18;100.00;99144.42;219936;1277;22585;-76
2022/08/12 03:35:52;;;;;;;13.40;9.00;;;;;;;12.14;100.00;99145.27;219526;1279;23866;-76
2022/08/12 04:17:08;;;;;;;10.40;6.00;;;;;;;12.70;100.00;99129.54;220192;1276;24316;-75
2022/08/12 04:23:40;;;;;;;7.70;6.00;;;;;;;12.80;100.00;99138.51;219935;1276;25374;-75
2022/08/12 04:50:02;;;;;;;9.80;6.60;;;;;;;13.43;100.00;99155.64;219732;1278;23828;-75
2022/08/12 04:57:13;;;;;;;9.50;6.90;;;;;;;13.63;100.00;99165.74;220012;1276;23804;-75
2022/08/12 05:38:54;;;;;;;16.70;10.40;;;;;;;15.00;97.01;99152.33;219936;1277;22588;-75
2022/08/12 05:44:58;;;;;;;20.80;10.50;;;;;;;15.22;96.19;99153.50;219926;1278;22683;-75
2022/08/12 05:52:09;;;;;;;17.10;11.60;;;;;;;15.46;95.46;99155.39;220155;1276;25234;-72
2022/08/12 05:58:53;;;;;;;15.40;11.50;;;;;;;15.68;94.35;99162.11;220312;1276;24319;-75
2022/08/12 06:05:09;;;;;;;15.20;11.70;;;;;;;15.96;93.86;99169.56;219998;1277;22716;-73
2022/08/12 06:11:30;;;;;;;10.50;7.80;;;;;;;16.20;93.45;99168.98;220594;1276;22528;-72
2022/08/12 06:17:54;;;;;;;10.30;8.00;;;;;;;16.47;92.81;99168.19;220180;1277;23454;-73
2022/08/12 06:29:48;;;;;;;10.00;7.00;;;;;;;16.92;90.48;99164.66;220572;1277;24236;-74
2022/08/12 06:35:50;;;;;;;;;;;;;;;;;;;;;
2022/08/12 06:48:00;;;;;;;;;;;;;;;;;;;;;
2022/08/12 06:53:59;;;;;;;8.30;5.90;;;;;;;17.59;87.82;99179.35;220106;1276;23461;-74
2022/08/12 07:00:11;;;;;;;;;;;;;;;;;;;;;
2022/08/12 07:20:00;;;;;;;13.00;6.90;;;;;;;18.70;85.77;99168.27;220263;1276;23427;-74
2022/08/12 07:25:39;;;;;;;8.00;5.40;;;;;;;18.97;84.61;99175.52;220351;1276;25433;-80
2022/08/12 07:31:37;;;;;;;8.30;5.80;;;;;;;19.21;83.77;99171.20;220312;1277;22570;-73
2022/08/12 07:37:24;;;;;;;11.00;6.30;;;;;;;19.52;83.46;99169.80;220225;1277;22592;-73
2022/08/12 07:43:38;;;;;;;10.40;6.00;;;;;;;19.78;82.45;99165.77;220125;1277;25263;-74
2022/08/12 07:49:55;;;;;;;6.90;6.00;;;;;;;20.13;81.86;99153.94;219106;1282;26405;-74
2022/08/12 07:56:27;;;;;;;8.50;5.70;;;;;;;20.46;80.91;99154.59;219495;1282;23299;-75
2022/08/12 08:01:48;;;;;;;8.10;5.50;;;;;;;20.78;79.93;99157.36;219449;1282;23160;-74
2022/08/12 08:07:37;;;;;;;11.00;5.60;;;;;;;21.27;79.11;99160.67;219239;1282;22583;-75
2022/08/12 08:13:23;;;;;;;6.00;4.60;;;;;;;21.73;77.70;99164.23;219624;1282;22575;-75
2022/08/12 08:18:52;;;;;;;5.60;4.80;;;;;;;22.10;76.64;99172.46;219641;1278;24779;-75
2022/08/12 08:24:26;;;;;;;4.30;3.90;;;;;;;22.35;75.17;99175.59;220343;1277;25365;-76
2022/08/12 08:30:18;;;;;;;5.00;4.30;;;;;;;22.36;73.58;99182.11;220095;1277;26442;-75
2022/08/12 08:35:56;;;;;;;8.70;5.10;;;;;;;22.41;72.26;99180.40;219348;1281;25292;-75
2022/08/12 08:47:42;;;;;;;7.40;5.10;;;;;;;22.65;71.42;99167.40;219467;1280;25323;-75
2022/08/12 08:53:35;;;;;;;6.20;5.10;;;;;;;22.82;70.93;99167.80;219484;1281;22666;-75
2022/08/12 08:59:01;;;;;;;8.20;5.40;;;;;;;23.06;70.09;99170.83;219313;1281;22551;-73
2022/08/12 09:04:16;;;;;;;9.80;4.80;;;;;;;23.23;69.36;99173.41;219772;1278;23697;-74
2022/08/12 09:10:41;;;;;;;5.70;4.60;;;;;;;23.24;67.88;99160.55;219866;1277;23008;-74
2022/08/12 09:16:21;;;;;;;5.80;4.70;;;;;;;23.26;67.60;99160.80;220266;1277;25290;-75
2022/08/12 09:27:35;;;;;;;4.10;3.70;;;;;;;23.57;66.19;99164.20;219996;1277;25363;-75
2022/08/12 09:33:44;;;;;;;4.10;3.20;;;;;;;23.87;64.99;99172.35;219885;1277;25565;-73
2022/08/12 09:39:41;;;;;;;4.20;3.50;;;;;;;24.20;63.98;99167.02;220070;1277;22725;-73
2022/08/12 09:45:24;;;;;;;3.90;3.60;;;;;;;24.60;62.90;99168.49;219648;1281;22641;-73
2022/08/12 09:51:15;;;;;;;3.50;3.20;;;;;;;24.58;61.12;99167.13;219436;1281;22663;-73
2022/08/12 09:56:32;;;;;;;3.80;3.50;;;;;;;24.76;60.86;99163.67;219398;1281;23827;-73
2022/08/12 10:01:54;;;;;;;3.60;3.30;;;;;;;25.00;59.67;99159.85;219525;1281;26602;-72
2022/08/12 10:07:36;;;;;;;4.70;3.30;;;;;;;25.16;58.58;99155.39;219834;1277;25254;-72
2022/08/12 10:18:44;;;;;;;4.00;3.70;;;;;;;25.47;57.11;99148.94;219800;1277;23035;-73
2022/08/12 10:24:23;;;;;;;3.90;3.50;;;;;;;25.64;56.39;99140.99;220077;1277;22610;-73
2022/08/12 10:29:55;;;;;;;3.90;3.60;;;;;;;26.00;55.10;99134.73;219787;1277;23538;-73
2022/08/12 10:35:52;;;;;;;4.00;3.60;;;;;;;26.20;53.68;99130.70;220231;1276;22608;-72
2022/08/12 10:47:48;;;;;;;3.50;3.20;;;;;;;26.60;51.42;99118.36;219935;1277;26360;-72
2022/08/12 10:54:21;;;;;;;4.00;3.50;;;;;;;26.81;51.22;99109.10;220120;1276;22560;-73
2022/08/12 11:00:00;;;;;;;3.80;3.40;;;;;;;26.93;50.57;99103.15;220206;1276;22636;-73
2022/08/12 11:05:46;;;;;;;5.00;4.00;;;;;;;27.01;49.94;99100.02;220229;1277;22581;-73
2022/08/12 11:11:08;;;;;;;8.00;6.10;;;;;;;27.09;49.96;99082.17;220103;1276;22722;-72
2022/08/12 11:16:26;;;;;;;3.30;3.10;;;;;;;27.15;48.56;99080.61;219990;1277;22590;-73
2022/08/12 11:21:33;;;;;;;3.50;3.10;;;;;;;27.01;48.50;99082.89;220157;1277;22590;-73
2022/08/12 11:27:14;;;;;;;4.30;3.90;;;;;;;27.01;48.24;99082.80;220116;1277;22678;-73
2022/08/12 11:33:08;;;;;;;3.40;3.20;;;;;;;27.16;48.38;99082.89;220357;1276;25337;-73
2022/08/12 11:38:16;;;;;;;6.10;5.50;;;;;;;27.37;47.99;99084.79;220276;1277;22712;-72
2022/08/12 11:43:24;;;;;;;5.40;4.90;;;;;;;27.49;47.47;99078.02;219622;1277;1003164;-72
2022/08/12 11:48:56;;;;;;;3.90;3.30;;;;;;;27.47;46.63;99076.84;220351;1277;22580;-72
2022/08/12 11:54:03;;;;;;;3.60;3.40;;;;;;;27.52;46.37;99075.83;219936;1278;24441;-72
2022/08/12 11:59:10;;;;;;;3.40;3.10;;;;;;;27.49;45.97;99071.96;220214;1277;22560;-72
2022/08/12 12:04:36;;;;;;;3.50;3.20;;;;;;;27.43;45.34;99073.39;219501;1277;1002326;-72
2022/08/12 12:09:42;;;;;;;3.50;3.20;;;;;;;27.44;45.42;99072.05;220311;1276;23186;-71
2022/08/12 12:15:05;;;;;;;3.10;2.90;;;;;;;27.58;45.13;99068.80;219351;1277;1002638;-72
2022/08/12 12:20:11;;;;;;;4.00;3.50;;;;;;;27.67;45.70;99070.04;220113;1277;25429;-72
2022/08/12 12:25:34;;;;;;;4.20;3.80;;;;;;;27.88;45.46;99073.44;220312;1276;22596;-72
2022/08/12 12:31:05;;;;;;;3.20;2.90;;;;;;;27.87;44.46;99064.02;220105;1278;22566;-73
2022/08/12 12:36:48;;;;;;;3.30;3.00;;;;;;;27.93;43.85;99062.02;220061;1276;22566;-73
2022/08/12 12:42:19;;;;;;;3.90;3.60;;;;;;;27.84;43.99;99056.79;220244;1276;22604;-72
2022/08/12 12:48:09;;;;;;;3.90;3.00;;;;;;;27.93;44.05;99052.66;220106;1276;22592;-73
2022/08/12 12:53:20;;;;;;;3.00;2.80;;;;;;;27.98;43.62;99046.05;220192;1276;25103;-72
2022/08/12 12:58:43;;;;;;;2.70;2.50;;;;;;;28.14;43.50;99041.44;219990;1277;25250;-73
2022/08/12 13:03:52;;;;;;;3.80;3.50;;;;;;;28.24;43.18;99037.45;219928;1277;22699;-73
2022/08/12 13:09:00;;;;;;;3.80;3.50;;;;;;;28.29;42.56;99035.23;220037;1276;22709;-72
2022/08/12 13:14:05;;;;;;;3.80;3.50;;;;;;;28.16;41.88;99031.43;219961;1277;22637;-73
2022/08/12 13:19:25;;;;;;;3.50;3.20;;;;;;;28.06;41.89;99023.52;220119;1276;25437;-73
2022/08/12 13:24:46;;;;;;;3.90;3.60;;;;;;;27.94;42.22;99021.66;219742;1278;23045;-73
2022/08/12 13:30:19;;;;;;;3.90;3.60;;;;;;;27.89;42.50;99021.92;219901;1279;22630;-74
2022/08/12 13:35:35;;;;;;;4.70;4.00;;;;;;;27.88;42.59;99012.73;220164;1276;24240;-73
2022/08/12 13:41:36;;;;;;;3.50;3.30;;;;;;;27.84;42.33;99008.73;216228;1276;5400825;-74
2022/08/12 13:46:44;;;;;;;3.90;3.60;;;;;;;27.59;41.86;99008.36;220172;1276;24120;-72
2022/08/12 13:52:14;;;;;;;3.40;3.20;;;;;;;27.33;41.75;98998.89;220094;1277;24340;-77
2022/08/12 13:57:42;;;;;;;3.50;3.20;;;;;;;27.21;42.13;98993.95;220276;1277;24310;-72
2022/08/12 14:02:48;;;;;;;3.50;3.20;;;;;;;27.16;42.02;98994.13;220351;1276;26545;-72
2022/08/12 14:08:07;;;;;;;3.50;3.20;;;;;;;26.96;42.20;98983.85;220267;1276;22652;-72
2022/08/12 14:13:51;;;;;;;3.80;3.30;;;;;;;26.99;42.30;98982.67;219901;1276;22610;-71
2022/08/12 14:19:13;;;;;;;3.60;3.30;;;;;;;27.03;42.30;98982.20;220187;1276;22575;-72
2022/08/12 14:24:33;;;;;;;3.60;3.30;;;;;;;27.09;42.02;98974.48;220189;1276;25438;-73
2022/08/12 14:29:46;;;;;;;3.70;3.30;;;;;;;27.23;41.97;98972.49;220368;1276;23023;-72
2022/08/12 14:35:32;;;;;;;3.70;3.40;;;;;;;27.32;41.79;98967.45;220243;1276;22561;-71
2022/08/12 14:40:51;;;;;;;4.20;3.90;;;;;;;27.29;41.81;98957.73;220287;1276;22599;-71
2022/08/12 14:46:18;;;;;;;4.90;4.30;;;;;;;27.34;41.23;98951.35;220402;1279;22570;-72
2022/08/12 14:51:25;;;;;;;4.10;3.70;;;;;;;27.30;41.02;98952.84;220038;1276;22570;-71
2022/08/12 14:56:49;;;;;;;3.30;3.10;;;;;;;27.34;41.60;98946.71;219865;1276;22566;-72
2022/08/12 15:02:13;;;;;;;5.70;4.20;;;;;;;27.43;41.90;98943.16;220130;1276;22632;-73
2022/08/12 15:07:25;;;;;;;3.70;3.20;;;;;;;27.48;41.13;98945.20;220273;1276;22985;-72
2022/08/12 15:12:50;;;;;;;3.70;3.40;;;;;;;27.24;41.10;98951.84;220285;1276;25267;-72
2022/08/12 15:18:00;;;;;;;5.60;5.10;;;;;;;26.87;41.33;98955.13;220246;1276;25929;-73
2022/08/12 15:23:10;;;;;;;3.50;3.20;;;;;;;26.51;41.50;98948.43;220567;1276;22768;-73
2022/08/12 15:28:29;;;;;;;;;;;;;;;26.52;41.54;98945.29;220327;1276;22687;-72
2022/08/12 15:33:33;;;;;;;3.60;3.30;;;;;;;26.71;41.51;98943.18;220324;1276;22583;-73
2022/08/12 15:38:46;;;;;;;4.10;3.80;;;;;;;27.02;41.38;98945.21;220228;1274;22579;-72
2022/08/12 15:43:49;;;;;;;3.70;3.30;;;;;;;27.20;40.67;98944.23;219054;1277;1002703;-72
2022/08/12 15:49:17;;;;;;;4.30;3.40;;;;;;;27.04;40.68;98941.05;219999;1276;22552;-72
2022/08/12 15:54:38;;;;;;;3.30;3.00;;;;;;;26.72;41.16;98939.73;220124;1277;22541;-71
2022/08/12 15:59:46;;;;;;;3.50;3.20;;;;;;;26.69;41.04;98935.33;220012;1279;22732;-72
2022/08/12 16:05:27;;;;;;;5.00;3.90;;;;;;;26.65;40.99;98936.66;220091;1278;23925;-72
2022/08/12 16:10:52;;;;;;;4.30;3.30;;;;;;;26.65;41.47;98933.35;220129;1276;24368;-71
2022/08/12 16:16:18;;;;;;;4.90;3.80;;;;;;;26.68;41.24;98929.05;219795;1277;24271;-72
2022/08/12 16:21:26;;;;;;;3.60;3.30;;;;;;;26.72;41.26;98927.42;220173;1276;25409;-72
2022/08/12 16:26:51;;;;;;;5.40;3.80;;;;;;;26.73;41.30;98926.09;220341;1276;25194;-72
2022/08/12 16:32:06;;;;;;;5.50;5.00;;;;;;;26.73;41.30;98918.86;220532;1276;23793;-72
2022/08/12 16:37:33;;;;;;;4.80;4.30;;;;;;;26.72;41.44;98923.80;219841;1276;22549;-71
2022/08/12 16:43:35;;;;;;;4.10;3.80;;;;;;;26.64;41.46;98919.95;219774;1276;22588;-72
2022/08/12 16:48:38;;;;;;;3.70;3.40;;;;;;;26.45;41.49;98912.56;219604;1278;22860;-72
2022/08/12 16:53:43;;;;;;;4.40;4.10;;;;;;;26.27;41.35;98903.92;219994;1276;22588;-72
2022/08/12 16:58:59;;;;;;;4.60;4.10;;;;;;;26.02;41.47;98898.48;219423;1276;1003175;-71
2022/08/12 17:04:13;;;;;;;4.70;4.30;;;;;;;25.76;42.02;98892.28;220036;1277;22617;-72
2022/08/12 17:09:36;;;;;;;4.60;4.20;;;;;;;25.50;42.35;98888.60;220120;1277;26521;-72
2022/08/12 17:14:45;;;;;;;5.00;4.40;;;;;;;25.24;43.25;98882.66;220040;1277;25328;-72
2022/08/12 17:20:12;;;;;;;5.30;4.60;;;;;;;25.06;43.76;98882.27;220155;1277;22580;-73
2022/08/12 17:26:05;;;;;;;6.40;4.70;;;;;;;24.91;44.16;98879.67;220011;1277;23901;-72
2022/08/12 17:31:28;;;;;;;6.30;4.30;;;;;;;24.78;44.38;98882.25;220015;1276;25245;-72
2022/08/12 17:36:57;;;;;;;4.80;4.40;;;;;;;24.57;44.69;98883.04;219896;1275;22569;-72
2022/08/12 17:42:49;;;;;;;5.00;4.50;;;;;;;24.38;45.26;98886.07;219610;1279;22557;-71
2022/08/12 17:48:13;;;;;;;7.40;4.60;;;;;;;24.14;45.90;98890.86;219918;1276;22594;-73
2022/08/12 17:53:44;;;;;;;9.80;4.70;;;;;;;23.88;46.36;98888.58;219906;1276;22558;-72
2022/08/12 18:05:32;;;;;;;;;;;;;;;;;;;;;
2022/08/12 18:25:05;;;;;;;5.50;4.10;;;;;;;22.44;49.83;98894.04;219819;1276;22570;-72
2022/08/12 18:30:42;;;;;;;;;;;;;;;;;;;;;
2022/08/12 18:36:44;;;;;;;;;;;;;;;;;;;;;
2022/08/12 18:43:01;;;;;;;;;;;;;;;;;;;;;
2022/08/12 18:49:20;;;;;;;7.30;3.30;;;;;;;21.49;52.64;98893.83;219613;1277;22564;-72
2022/08/12 18:56:06;;;;;;;4.30;3.90;;;;;;;21.29;53.63;98897.41;219826;1274;25321;-72
2022/08/12 19:02:08;;;;;;;5.50;4.30;;;;;;;21.18;54.60;98899.10;220046;1276;24295;-73
2022/08/12 19:08:17;;;;;;;4.90;4.40;;;;;;;21.10;55.47;98903.83;220020;1276;24266;-72
2022/08/12 19:15:28;;;;;;;;;;;;;;;;;;;;;
2022/08/12 19:21:30;;;;;;;6.10;4.70;;;;;;;20.88;57.16;98902.09;219835;1276;25612;-72
2022/08/12 19:27:08;;;;;;;5.80;5.30;;;;;;;20.78;57.86;98903.73;219921;1276;25549;-72
2022/08/12 19:33:38;;;;;;;7.30;5.00;;;;;;;20.68;58.52;98910.34;219976;1276;25372;-72
2022/08/12 19:40:17;;;;;;;10.30;6.40;;;;;;;20.68;59.34;98919.38;220089;1276;22580;-71
2022/08/12 19:46:17;;;;;;;10.20;7.20;;;;;;;20.67;59.96;98920.04;220063;1276;24284;-72
2022/08/12 19:52:32;;;;;;;10.60;7.40;;;;;;;20.65;60.57;98918.71;218271;1276;1003512;-74
2022/08/12 19:58:40;;;;;;;13.50;8.30;;;;;;;20.58;60.44;98914.82;219956;1277;22555;-72
2022/08/12 20:04:31;;;;;;;16.00;10.50;;;;;;;20.50;61.39;98907.71;220038;1276;22711;-72
2022/08/12 20:10:28;;;;;;;14.00;8.10;;;;;;;20.48;61.94;98908.75;220022;1276;24488;-70
2022/08/12 20:21:48;;;;;;;10.80;7.90;;;;;;;20.37;62.72;98911.90;219738;1277;22558;-72
2022/08/12 20:28:33;;;;;;;9.20;7.40;;;;;;;20.26;63.33;98918.78;219477;1274;22541;-73
2022/08/12 20:34:46;;;;;;;8.90;6.60;;;;;;;20.18;63.95;98920.27;215953;1277;1003815;-73
2022/08/12 20:40:50;;;;;;;9.40;8.40;;;;;;;20.09;64.48;98921.69;219678;1278;22557;-72
2022/08/12 20:46:36;;;;;;;13.40;9.80;;;;;;;19.98;64.92;98920.70;219675;1278;22729;-72
2022/08/12 20:52:26;;;;;;;11.20;9.10;;;;;;;19.96;65.44;98926.23;219810;1279;23102;-73
2022/08/12 21:10:23;;;;;;;14.70;8.80;;;;;;;19.62;66.39;98920.30;219065;1279;1015948;-73
2022/08/12 21:23:57;;;;;;;;;;;;;;;;;;;;;
2022/08/12 21:30:05;;;;;;;11.00;7.80;;;;;;;19.34;67.92;98920.34;216648;1276;1003772;-72
2022/08/12 21:36:42;;;;;;;9.10;7.30;;;;;;;19.23;68.27;98909.02;219945;1276;23453;-72
2022/08/12 21:42:20;;;;;;;9.40;7.60;;;;;;;19.13;68.59;98902.84;220021;1276;24316;-73
2022/08/12 21:47:36;;;;;;;9.90;7.10;;;;;;;19.04;69.04;98899.07;220089;1276;22572;-72
2022/08/12 21:53:35;;;;;;;8.40;7.50;;;;;;;18.95;69.20;98890.66;219935;1276;24386;-72
2022/08/12 22:00:32;;;;;;;9.40;7.50;;;;;;;18.85;69.70;98888.15;219845;1276;22541;-73
2022/08/12 22:06:28;;;;;;;10.60;8.00;;;;;;;18.74;70.00;98885.95;219441;1276;25371;-72
2022/08/12 22:19:00;;;;;;;;;;;;;;;;;;;;;
2022/08/12 22:25:07;;;;;;;11.10;8.80;;;;;;;18.54;71.33;98890.44;218867;1278;1003801;-73
2022/08/12 22:37:53;;;;;;;13.90;9.90;;;;;;;18.52;72.21;98887.97;219875;1276;24139;-74
2022/08/12 22:51:30;;;;;;;12.20;8.80;;;;;;;18.39;72.61;98880.95;220060;1277;23056;-72
2022/08/12 22:58:18;;;;;;;12.40;8.70;;;;;;;18.35;73.00;98879.13;219959;1277;22627;-75
2022/08/12 23:04:59;;;;;;;12.10;9.90;;;;;;;18.27;73.14;98877.90;217608;1276;1003265;-73
2022/08/12 23:11:06;;;;;;;16.00;11.50;;;;;;;18.21;73.30;98872.48;219703;1277;22734;-72
2022/08/12 23:23:19;;;;;;;;;;;;;;;;;;;;;
2022/08/12 23:36:13;;;;;;;14.10;10.50;;;;;;;17.89;74.52;98841.92;219957;1276;22537;-73
2022/08/12 23:42:07;;;;;;;16.20;11.70;;;;;;;17.83;74.81;98833.48;220063;1276;23828;-74
2022/08/12 23:48:22;;;;;;;16.00;10.70;;;;;;;17.75;75.08;98833.13;219701;1276;22577;-72
2022/08/12 23:54:12;;;;;;;16.10;11.30;;;;;;;17.68;75.35;98821.66;219983;1276;22572;-72
2022/08/12 23:59:47;;;;;;;14.60;9.70;;;;;;;17.59;75.57;98813.34;219628;1279;22577;-73
